Time;durP1;ratioP1;P1;durP2;ratioP2;P2;SDS_P1;SDS_P2;PMS_P1;PMS_P2;Temp;Humidity;BMP_temperature;BMP_pressure;BME280_temperature;BME280_humidity;BME280_pressure;Samples;Min_cycle;Max_cycle;Signal;HPM_P1;HPM_P2
2022/02/10 00:21:20;;;;;;;15.10;6.90;;;;;;;;;;5014480;28;20068;-69
2022/02/10 00:34:48;;;;;;;12.07;6.00;;;;;;;;;;5014415;28;20084;-69
2022/02/10 00:37:19;;;;;;;17.52;7.25;;;;;;;;;;5016238;28;20379;-68
2022/02/10 00:42:11;;;;;;;21.63;7.95;;;;;;;;;;5017476;28;20033;-69
2022/02/10 00:44:37;;;;;;;20.40;8.25;;;;;;;;;;5016106;28;20028;-69
2022/02/10 00:47:04;;;;;;;20.33;7.63;;;;;;;;;;4999802;28;20371;-69
2022/02/10 00:49:30;;;;;;;15.45;7.43;;;;;;;;;;5015969;28;20076;-69
2022/02/10 00:51:57;;;;;;;16.40;6.88;;;;;;;;;;5016014;28;20076;-69
2022/02/10 00:54:25;;;;;;;17.02;6.88;;;;;;;;;;5017454;28;20467;-68
2022/02/10 00:56:52;;;;;;;12.55;6.45;;;;;;;;;;5015848;28;20121;-69
2022/02/10 01:02:33;;;;;;;18.80;7.30;;;;;;;;;;5017951;28;20038;-69
2022/02/10 01:29:52;;;;;;;15.70;6.90;;;;;;;;;;5016840;28;20033;-68
2022/02/10 01:31:54;;;;;;;13.77;6.68;;;;;;;;;;5009645;28;20541;-69
2022/02/10 01:34:20;;;;;;;13.25;6.53;;;;;;;;;;5015158;28;20049;-69
2022/02/10 01:36:46;;;;;;;14.57;5.65;;;;;;;;;;5016303;28;20433;-69
2022/02/10 01:39:13;;;;;;;21.27;6.65;;;;;;;;;;5015149;28;20033;-69
2022/02/10 02:03:47;;;;;;;20.65;6.60;;;;;;;;;;5016305;28;20057;-69
2022/02/10 02:06:22;;;;;;;14.07;6.20;;;;;;;;;;5014639;28;20532;-69
2022/02/10 02:08:48;;;;;;;15.95;6.88;;;;;;;;;;5014646;28;20029;-69
2022/02/10 02:11:17;;;;;;;14.35;6.18;;;;;;;;;;5014644;28;20105;-69
2022/02/10 02:13:43;;;;;;;16.48;6.72;;;;;;;;;;5015737;28;20034;-68
2022/02/10 02:16:09;;;;;;;12.43;6.43;;;;;;;;;;5014485;28;20038;-69
2022/02/10 02:18:35;;;;;;;12.75;6.15;;;;;;;;;;5014476;28;20522;-69
2022/02/10 02:21:02;;;;;;;14.63;6.20;;;;;;;;;;5014394;28;20037;-69
2022/02/10 02:23:29;;;;;;;13.77;5.55;;;;;;;;;;5014292;28;20029;-69
2022/02/10 02:26:05;;;;;;;15.13;6.63;;;;;;;;;;5016121;28;20633;-69
2022/02/10 02:28:34;;;;;;;13.82;5.93;;;;;;;;;;5014246;28;20095;-69
2022/02/10 02:31:08;;;;;;;16.92;5.45;;;;;;;;;;5014090;28;20026;-67
2022/02/10 03:08:45;;;;;;;14.93;6.88;;;;;;;;;;5014705;28;20033;-67
2022/02/10 03:11:13;;;;;;;15.30;6.35;;;;;;;;;;5013459;28;20399;-69
2022/02/10 03:13:53;;;;;;;18.63;6.22;;;;;;;;;;5013389;28;20029;-69
2022/02/10 03:19:05;;;;;;;15.38;6.25;;;;;;;;;;5014587;28;20037;-69
2022/02/10 04:08:04;;;;;;;12.70;5.57;;;;;;;;;;5014646;28;20037;-68
2022/02/10 04:31:25;;;;;;;16.15;5.70;;;;;;;;;;5014464;28;20049;-69
2022/02/10 04:53:32;;;;;;;13.02;5.95;;;;;;;;;;5013629;28;20543;-68
2022/02/10 04:58:36;;;;;;;13.02;6.00;;;;;;;;;;5013287;28;20368;-68
2022/02/10 05:07:01;;;;;;;12.98;5.97;;;;;;;;;;5013719;28;20501;-69
2022/02/10 05:22:44;;;;;;;12.57;5.47;;;;;;;;;;5013908;28;20460;-66
2022/02/10 05:33:47;;;;;;;10.38;4.78;;;;;;;;;;5017321;28;20493;-67
2022/02/10 05:36:16;;;;;;;9.43;4.38;;;;;;;;;;5017095;28;20030;-67
2022/02/10 05:39:07;;;;;;;10.18;4.75;;;;;;;;;;5015286;28;20021;-67
2022/02/10 05:57:42;;;;;;;11.48;5.28;;;;;;;;;;5016002;28;20034;-68
2022/02/10 06:52:08;;;;;;;30.20;14.13;;;;;;;;;;5014890;28;20025;-67
2022/02/10 06:55:01;;;;;;;46.97;18.60;;;;;;;;;;5015707;28;20530;-68
2022/02/10 07:05:45;;;;;;;53.10;19.55;;;;;;;;;;5014475;28;20038;-67
2022/02/10 07:11:11;;;;;;;48.17;19.75;;;;;;;;;;5015208;28;20034;-68
2022/02/10 08:17:55;;;;;;;11.75;5.43;;;;;;;;;;5013378;28;20453;-67
2022/02/10 08:49:42;;;;;;;8.20;5.05;;;;;;;;;;5013456;28;20076;-67
2022/02/10 08:56:46;;;;;;;13.45;7.45;;;;;;;;;;5013473;28;20042;-82
2022/02/10 09:24:19;;;;;;;7.18;3.67;;;;;;;;;;5076669;28;20025;-82
2022/02/10 09:56:13;;;;;;;3.78;1.90;;;;;;;;;;5076374;28;20550;-82
2022/02/10 10:01:20;;;;;;;5.10;2.83;;;;;;;;;;5077468;28;20056;-82
2022/02/10 10:04:33;;;;;;;4.85;2.38;;;;;;;;;;5092864;28;20048;-81
2022/02/10 10:07:18;;;;;;;4.78;2.30;;;;;;;;;;5056609;28;20123;-82
2022/02/10 10:10:37;;;;;;;4.72;2.50;;;;;;;;;;5074953;28;20029;-82
2022/02/10 10:26:37;;;;;;;4.38;2.58;;;;;;;;;;5044568;28;20043;-81
2022/02/10 10:49:36;;;;;;;4.57;2.75;;;;;;;;;;5055274;28;20067;-83
2022/02/10 10:56:48;;;;;;;4.10;2.38;;;;;;;;;;5054960;28;20041;-82
2022/02/10 11:38:31;;;;;;;4.93;2.15;;;;;;;;;;5074765;28;20067;-84
2022/02/10 14:15:49;;;;;;;9.93;4.25;;;;;;;;;;5061143;28;20036;-82
2022/02/10 14:25:41;;;;;;;8.07;3.90;;;;;;;;;;5075636;28;20029;-82
2022/02/10 14:28:07;;;;;;;6.47;3.78;;;;;;;;;;5075588;28;20044;-82
2022/02/10 14:30:33;;;;;;;4.85;2.97;;;;;;;;;;5073920;28;20052;-82
2022/02/10 14:33:00;;;;;;;6.43;3.08;;;;;;;;;;5074323;28;20036;-81
2022/02/10 14:35:34;;;;;;;6.70;3.83;;;;;;;;;;5074420;28;20025;-81
2022/02/10 14:39:11;;;;;;;;;;;;;;;;;;5074698;28;20037;-81
2022/02/10 15:53:43;;;;;;;13.35;5.38;;;;;;;;;;5069323;28;20440;-83
2022/02/10 16:13:40;;;;;;;13.48;5.07;;;;;;;;;;5074208;28;20031;-84
2022/02/10 16:17:54;;;;;;;9.98;6.10;;;;;;;;;;5074140;28;20500;-85
2022/02/10 16:20:23;;;;;;;11.50;4.78;;;;;;;;;;5072745;28;20051;-84
2022/02/10 16:23:04;;;;;;;9.55;5.55;;;;;;;;;;5072102;28;20028;-83
2022/02/10 16:25:33;;;;;;;10.68;5.28;;;;;;;;;;5072449;28;20101;-83
2022/02/10 16:28:19;;;;;;;13.85;5.30;;;;;;;;;;5072453;28;20044;-83
2022/02/10 16:30:45;;;;;;;8.75;5.00;;;;;;;;;;5069599;28;20032;-82
2022/02/10 16:33:11;;;;;;;11.32;5.68;;;;;;;;;;5061678;28;20055;-83
2022/02/10 16:35:39;;;;;;;11.20;5.18;;;;;;;;;;5061451;28;20028;-82
2022/02/10 16:38:05;;;;;;;14.85;5.63;;;;;;;;;;5062677;28;20041;-83
2022/02/10 16:40:33;;;;;;;9.77;5.10;;;;;;;;;;5052932;28;20025;-82
2022/02/10 16:42:59;;;;;;;27.20;11.18;;;;;;;;;;5051905;28;20116;-83
2022/02/10 16:45:26;;;;;;;37.60;14.35;;;;;;;;;;5052843;28;20037;-83
2022/02/10 16:47:52;;;;;;;19.88;8.73;;;;;;;;;;5067937;28;20028;-83
2022/02/10 16:50:20;;;;;;;21.60;10.48;;;;;;;;;;5073247;28;20032;-83
2022/02/10 16:52:52;;;;;;;23.38;8.70;;;;;;;;;;5074490;28;20360;-85
2022/02/10 16:55:35;;;;;;;26.85;14.13;;;;;;;;;;5072381;28;20517;-83
2022/02/10 17:01:03;;;;;;;36.42;18.27;;;;;;;;;;5074515;28;20484;-83
2022/02/10 17:27:37;;;;;;;21.30;12.25;;;;;;;;;;5076742;28;20060;-84
2022/02/10 17:33:27;;;;;;;25.77;14.38;;;;;;;;;;5077834;28;20032;-84
2022/02/10 17:46:28;;;;;;;21.58;12.30;;;;;;;;;;5076970;28;20033;-85
2022/02/10 17:52:03;;;;;;;26.00;11.95;;;;;;;;;;5077794;28;20512;-85
2022/02/10 17:54:28;;;;;;;22.80;10.98;;;;;;;;;;5077024;28;20107;-84
2022/02/10 17:56:54;;;;;;;21.20;11.63;;;;;;;;;;5075817;28;20036;-87
2022/02/10 17:59:21;;;;;;;24.77;13.82;;;;;;;;;;5076567;28;20025;-92
2022/02/10 18:01:48;;;;;;;23.80;12.30;;;;;;;;;;5076588;28;20036;-89
2022/02/10 18:04:15;;;;;;;25.05;13.43;;;;;;;;;;5077328;28;20049;-88
2022/02/10 18:06:44;;;;;;;21.20;11.50;;;;;;;;;;5077326;28;20029;-88
2022/02/10 18:14:39;;;;;;;20.67;9.63;;;;;;;;;;5076858;28;20109;-87
2022/02/10 18:30:15;;;;;;;25.73;11.73;;;;;;;;;;5077051;28;20449;-86
2022/02/10 19:01:33;;;;;;;34.17;19.25;;;;;;;;;;5076656;28;20083;-87
2022/02/10 19:10:20;;;;;;;21.42;12.38;;;;;;;;;;5058346;28;20038;-89
2022/02/10 19:12:49;;;;;;;23.33;12.98;;;;;;;;;;5074016;28;20421;-86
2022/02/10 19:15:20;;;;;;;21.80;11.75;;;;;;;;;;5074433;28;20032;-86
2022/02/10 19:17:47;;;;;;;19.08;10.00;;;;;;;;;;5073794;28;20029;-87
2022/02/10 19:20:14;;;;;;;23.80;11.00;;;;;;;;;;5073988;28;20392;-86
2022/02/10 19:22:43;;;;;;;20.02;9.90;;;;;;;;;;5074079;28;20457;-89
2022/02/10 19:25:12;;;;;;;22.15;11.70;;;;;;;;;;5062081;28;20553;-86
2022/02/10 19:27:40;;;;;;;21.00;12.18;;;;;;;;;;5071761;28;20028;-86
2022/02/10 19:30:08;;;;;;;22.98;12.40;;;;;;;;;;5055086;28;20155;-86
2022/02/10 19:32:35;;;;;;;21.27;12.50;;;;;;;;;;5063456;28;20025;-86
2022/02/10 19:35:01;;;;;;;24.30;10.90;;;;;;;;;;5073585;28;20021;-87
2022/02/10 19:37:30;;;;;;;26.60;12.70;;;;;;;;;;5073895;28;20039;-87
2022/02/10 19:39:59;;;;;;;20.80;11.95;;;;;;;;;;5073891;28;20424;-88
2022/02/10 19:42:27;;;;;;;19.17;10.18;;;;;;;;;;5073406;28;20435;-88
2022/02/10 19:45:00;;;;;;;20.13;11.98;;;;;;;;;;5074030;28;20025;-89
2022/02/10 19:47:26;;;;;;;22.85;10.57;;;;;;;;;;5073839;28;20028;-89
2022/02/10 19:49:52;;;;;;;24.10;10.68;;;;;;;;;;5074093;28;20029;-88
2022/02/10 19:52:19;;;;;;;20.02;11.32;;;;;;;;;;5073561;28;20029;-83
2022/02/10 19:54:50;;;;;;;23.05;10.60;;;;;;;;;;5073236;28;20063;-83
2022/02/10 19:57:18;;;;;;;18.80;8.73;;;;;;;;;;5073341;28;20032;-84
2022/02/10 19:59:44;;;;;;;18.33;9.65;;;;;;;;;;5074104;28;20032;-83
2022/02/10 20:02:16;;;;;;;17.05;8.25;;;;;;;;;;5072078;28;20029;-83
2022/02/10 20:04:42;;;;;;;15.80;8.35;;;;;;;;;;5071548;28;20056;-82
2022/02/10 20:07:10;;;;;;;13.35;7.28;;;;;;;;;;5072414;28;20032;-82
2022/02/10 20:09:37;;;;;;;20.63;7.60;;;;;;;;;;5072281;28;20048;-83
2022/02/10 20:12:03;;;;;;;14.40;6.93;;;;;;;;;;5072570;28;20028;-79
2022/02/10 20:14:30;;;;;;;23.55;7.78;;;;;;;;;;5072652;28;20473;-81
2022/02/10 20:16:57;;;;;;;20.63;8.50;;;;;;;;;;5072302;28;20036;-80
2022/02/10 20:19:24;;;;;;;21.02;10.13;;;;;;;;;;5073452;28;20017;-80
2022/02/10 20:21:51;;;;;;;23.17;8.90;;;;;;;;;;5071825;28;20203;-81
2022/02/10 20:24:17;;;;;;;18.25;8.48;;;;;;;;;;5071664;28;20485;-81
2022/02/10 20:26:43;;;;;;;13.85;7.20;;;;;;;;;;5071886;28;20086;-81
2022/02/10 20:29:11;;;;;;;14.52;7.53;;;;;;;;;;5072988;28;20027;-85
2022/02/10 20:31:39;;;;;;;13.48;6.78;;;;;;;;;;5072316;28;20032;-85
2022/02/10 20:34:07;;;;;;;12.77;5.22;;;;;;;;;;5072250;28;20029;-85
2022/02/10 20:36:35;;;;;;;6.43;3.60;;;;;;;;;;5073243;28;20537;-81
2022/02/10 20:39:01;;;;;;;9.00;3.10;;;;;;;;;;5072205;28;20420;-83
2022/02/10 20:41:32;;;;;;;7.13;2.90;;;;;;;;;;5073471;28;20091;-83
2022/02/10 20:43:59;;;;;;;12.93;3.50;;;;;;;;;;5072371;28;20025;-82
2022/02/10 20:46:28;;;;;;;6.55;3.50;;;;;;;;;;5072448;28;20089;-81
2022/02/10 20:48:55;;;;;;;9.18;3.40;;;;;;;;;;5072034;28;20492;-82
2022/02/10 20:51:21;;;;;;;6.88;3.50;;;;;;;;;;5072307;28;20021;-82
2022/02/10 20:53:49;;;;;;;6.40;3.05;;;;;;;;;;5075610;28;20027;-81
2022/02/10 20:56:20;;;;;;;6.72;3.22;;;;;;;;;;5075921;28;20075;-81
2022/02/10 20:58:53;;;;;;;7.90;3.63;;;;;;;;;;5076457;28;20381;-79
2022/02/10 21:01:19;;;;;;;6.53;3.40;;;;;;;;;;5075374;28;20107;-80
2022/02/10 21:03:46;;;;;;;7.88;3.67;;;;;;;;;;5076283;28;20530;-82
2022/02/10 21:09:06;;;;;;;4.53;2.28;;;;;;;;;;5055451;28;20028;-81
2022/02/10 21:11:32;;;;;;;5.68;2.50;;;;;;;;;;5077091;28;20021;-82
2022/02/10 21:13:59;;;;;;;7.20;2.40;;;;;;;;;;5076284;28;20036;-79
2022/02/10 21:16:26;;;;;;;5.82;2.80;;;;;;;;;;5076934;28;20032;-82
2022/02/10 21:18:53;;;;;;;7.20;2.80;;;;;;;;;;5076609;28;20037;-81
2022/02/10 21:21:19;;;;;;;6.03;2.78;;;;;;;;;;5078685;28;20020;-80
2022/02/10 21:27:26;;;;;;;7.18;2.50;;;;;;;;;;5053400;28;20029;-79
2022/02/10 21:29:30;;;;;;;5.72;2.30;;;;;;;;;;5076302;28;20024;-82
2022/02/10 21:31:58;;;;;;;3.70;2.10;;;;;;;;;;5077201;28;20129;-80
2022/02/10 21:34:28;;;;;;;6.15;2.08;;;;;;;;;;5075335;28;20120;-81
2022/02/10 21:37:08;;;;;;;5.43;2.30;;;;;;;;;;5074712;28;20408;-79
2022/02/10 21:39:48;;;;;;;8.25;2.80;;;;;;;;;;5076578;28;20023;-81
2022/02/10 22:19:40;;;;;;;;;;;;;;;;;;5033941;28;20438;-81
2022/02/10 22:22:12;;;;;;;9.00;3.65;;;;;;;;;;5033681;28;20325;-81
2022/02/10 22:24:38;;;;;;;5.10;2.30;;;;;;;;;;5056576;28;20036;-81
2022/02/10 22:27:05;;;;;;;7.53;2.92;;;;;;;;;;5074582;28;20024;-82
2022/02/10 22:29:47;;;;;;;5.20;2.50;;;;;;;;;;5074224;28;20032;-82
2022/02/10 22:32:24;;;;;;;6.68;2.60;;;;;;;;;;5075613;28;20024;-80
2022/02/10 22:34:54;;;;;;;6.25;2.70;;;;;;;;;;5074392;28;20362;-81
2022/02/10 22:37:21;;;;;;;6.72;2.35;;;;;;;;;;5074076;28;20070;-82
2022/02/10 22:39:49;;;;;;;4.57;2.40;;;;;;;;;;5074367;28;20396;-81
2022/02/10 22:42:21;;;;;;;6.45;2.65;;;;;;;;;;5074122;28;20477;-82
2022/02/10 22:44:47;;;;;;;6.53;2.70;;;;;;;;;;5075569;28;20021;-81
2022/02/10 22:47:13;;;;;;;6.20;2.65;;;;;;;;;;5074192;28;20029;-82
2022/02/10 22:49:39;;;;;;;5.65;2.50;;;;;;;;;;5074241;28;20025;-82
2022/02/10 22:52:06;;;;;;;7.47;2.95;;;;;;;;;;5073947;28;20031;-81
2022/02/10 22:54:32;;;;;;;7.60;2.83;;;;;;;;;;5073672;28;20459;-80
2022/02/10 22:56:59;;;;;;;5.88;2.42;;;;;;;;;;5075373;28;20082;-82
2022/02/10 22:59:25;;;;;;;6.78;2.53;;;;;;;;;;5073673;28;20021;-81
2022/02/10 23:01:52;;;;;;;5.10;2.65;;;;;;;;;;5073699;28;20040;-81
2022/02/10 23:04:18;;;;;;;6.50;3.38;;;;;;;;;;5073653;28;20045;-81
2022/02/10 23:06:45;;;;;;;9.40;3.55;;;;;;;;;;5074066;28;20099;-81
2022/02/10 23:09:28;;;;;;;8.95;3.50;;;;;;;;;;5073485;28;20473;-81
2022/02/10 23:11:55;;;;;;;6.22;3.05;;;;;;;;;;5073853;28;20043;-80
2022/02/10 23:14:21;;;;;;;9.15;4.05;;;;;;;;;;5073705;28;20029;-83
2022/02/10 23:16:47;;;;;;;10.75;4.15;;;;;;;;;;5072652;28;20032;-82
2022/02/10 23:19:14;;;;;;;7.25;3.80;;;;;;;;;;5073341;28;20057;-82
2022/02/10 23:21:40;;;;;;;7.45;3.05;;;;;;;;;;5073715;28;20052;-82
2022/02/10 23:24:06;;;;;;;6.80;3.78;;;;;;;;;;5073326;28;20025;-81
2022/02/10 23:26:33;;;;;;;8.60;3.67;;;;;;;;;;5073526;28;20044;-82
2022/02/10 23:28:59;;;;;;;9.93;4.07;;;;;;;;;;5074763;28;20078;-82
2022/02/10 23:31:27;;;;;;;10.02;3.88;;;;;;;;;;5073200;28;20032;-82
2022/02/10 23:34:00;;;;;;;9.60;3.72;;;;;;;;;;5073370;28;20078;-82
2022/02/10 23:36:43;;;;;;;5.43;3.08;;;;;;;;;;5073279;28;20025;-82
2022/02/10 23:44:14;;;;;;;6.22;3.25;;;;;;;;;;5074672;28;20036;-82
2022/02/10 23:46:44;;;;;;;7.38;3.67;;;;;;;;;;5073324;28;20084;-83
2022/02/10 23:49:14;;;;;;;11.52;3.53;;;;;;;;;;5074349;28;20626;-82
2022/02/10 23:51:52;;;;;;;8.43;3.38;;;;;;;;;;5073118;28;20025;-83
2022/02/10 23:54:18;;;;;;;7.15;2.92;;;;;;;;;;5073287;28;20481;-82
2022/02/10 23:56:51;;;;;;;5.85;2.70;;;;;;;;;;5073048;28;20107;-82
2022/02/10 23:59:30;;;;;;;7.27;3.20;;;;;;;;;;5072904;28;20074;-81
